sensor_id;sensor_type;location;lat;lon;timestamp;temperature;humidity
12446;DHT22;6287;50.984;7.022;2022-10-30T00:00:22;15.40;99.90
12446;DHT22;6287;50.984;7.022;2022-10-30T00:02:52;15.30;99.90
12446;DHT22;6287;50.984;7.022;2022-10-30T00:05:18;15.30;99.90
12446;DHT22;6287;50.984;7.022;2022-10-30T00:07:46;15.30;99.90
12446;DHT22;6287;50.984;7.022;2022-10-30T00:10:14;15.30;99.90
12446;DHT22;6287;50.984;7.022;2022-10-30T00:12:40;15.40;99.90
12446;DHT22;6287;50.984;7.022;2022-10-30T00:15:07;15.30;99.90
12446;DHT22;6287;50.984;7.022;2022-10-30T00:17:33;15.40;99.90
12446;DHT22;6287;50.984;7.022;2022-10-30T00:19:58;15.40;99.90
12446;DHT22;6287;50.984;7.022;2022-10-30T00:22:29;15.40;99.90
12446;DHT22;6287;50.984;7.022;2022-10-30T00:24:54;15.40;99.90
12446;DHT22;6287;50.984;7.022;2022-10-30T00:27:20;15.40;99.90
12446;DHT22;6287;50.984;7.022;2022-10-30T00:29:46;15.40;99.90
12446;DHT22;6287;50.984;7.022;2022-10-30T00:32:11;15.40;99.90
12446;DHT22;6287;50.984;7.022;2022-10-30T00:34:42;15.40;99.90
12446;DHT22;6287;50.984;7.022;2022-10-30T00:37:10;15.40;99.90
12446;DHT22;6287;50.984;7.022;2022-10-30T00:39:36;15.40;99.90
12446;DHT22;6287;50.984;7.022;2022-10-30T00:42:01;15.30;99.90
12446;DHT22;6287;50.984;7.022;2022-10-30T00:47:10;15.30;99.90
12446;DHT22;6287;50.984;7.022;2022-10-30T00:49:48;15.30;99.90
12446;DHT22;6287;50.984;7.022;2022-10-30T00:52:17;15.30;99.90
12446;DHT22;6287;50.984;7.022;2022-10-30T00:54:46;15.30;99.90
12446;DHT22;6287;50.984;7.022;2022-10-30T00:57:14;15.30;99.90
12446;DHT22;6287;50.984;7.022;2022-10-30T00:59:39;15.30;99.90
12446;DHT22;6287;50.984;7.022;2022-10-30T01:02:08;15.30;99.90
12446;DHT22;6287;50.984;7.022;2022-10-30T01:04:36;15.40;99.90
12446;DHT22;6287;50.984;7.022;2022-10-30T01:07:10;15.30;99.90
12446;DHT22;6287;50.984;7.022;2022-10-30T01:09:37;15.40;99.90
12446;DHT22;6287;50.984;7.022;2022-10-30T01:12:06;15.40;99.90
12446;DHT22;6287;50.984;7.022;2022-10-30T01:14:37;15.40;99.90
12446;DHT22;6287;50.984;7.022;2022-10-30T01:17:26;15.40;99.90
12446;DHT22;6287;50.984;7.022;2022-10-30T01:28:54;15.30;99.90
12446;DHT22;6287;50.984;7.022;2022-10-30T01:31:16;15.20;99.90
12446;DHT22;6287;50.984;7.022;2022-10-30T01:33:57;15.20;99.90
12446;DHT22;6287;50.984;7.022;2022-10-30T01:36:26;15.20;99.90
12446;DHT22;6287;50.984;7.022;2022-10-30T01:39:16;15.10;99.90
12446;DHT22;6287;50.984;7.022;2022-10-30T01:41:40;15.00;99.90
12446;DHT22;6287;50.984;7.022;2022-10-30T01:44:19;15.00;99.90
12446;DHT22;6287;50.984;7.022;2022-10-30T01:46:59;15.10;99.90
12446;DHT22;6287;50.984;7.022;2022-10-30T01:52:59;15.00;99.90
12446;DHT22;6287;50.984;7.022;2022-10-30T01:55:48;15.00;99.90
12446;DHT22;6287;50.984;7.022;2022-10-30T01:58:27;15.00;99.90
12446;DHT22;6287;50.984;7.022;2022-10-30T02:00:57;14.90;99.90
12446;DHT22;6287;50.984;7.022;2022-10-30T02:03:26;14.80;99.90
12446;DHT22;6287;50.984;7.022;2022-10-30T02:05:53;14.80;99.90
12446;DHT22;6287;50.984;7.022;2022-10-30T02:08:21;14.70;99.90
12446;DHT22;6287;50.984;7.022;2022-10-30T02:10:51;14.70;99.90
12446;DHT22;6287;50.984;7.022;2022-10-30T02:13:19;14.60;99.90
12446;DHT22;6287;50.984;7.022;2022-10-30T02:15:46;14.50;99.90
12446;DHT22;6287;50.984;7.022;2022-10-30T02:18:15;14.40;99.90
12446;DHT22;6287;50.984;7.022;2022-10-30T02:20:45;14.40;99.90
12446;DHT22;6287;50.984;7.022;2022-10-30T02:23:13;14.30;99.90
12446;DHT22;6287;50.984;7.022;2022-10-30T02:25:43;14.30;99.90
12446;DHT22;6287;50.984;7.022;2022-10-30T02:28:09;14.30;99.90
12446;DHT22;6287;50.984;7.022;2022-10-30T02:30:35;14.30;99.90
12446;DHT22;6287;50.984;7.022;2022-10-30T02:33:00;14.20;99.90
12446;DHT22;6287;50.984;7.022;2022-10-30T02:35:26;14.20;99.90
12446;DHT22;6287;50.984;7.022;2022-10-30T02:37:51;14.10;99.90
12446;DHT22;6287;50.984;7.022;2022-10-30T02:40:19;14.10;99.90
12446;DHT22;6287;50.984;7.022;2022-10-30T02:45:16;14.10;99.90
12446;DHT22;6287;50.984;7.022;2022-10-30T02:47:41;14.10;99.90
12446;DHT22;6287;50.984;7.022;2022-10-30T02:50:07;14.10;99.90
12446;DHT22;6287;50.984;7.022;2022-10-30T02:52:37;14.00;99.90
12446;DHT22;6287;50.984;7.022;2022-10-30T02:55:06;13.90;99.90
12446;DHT22;6287;50.984;7.022;2022-10-30T02:57:36;13.90;99.90
12446;DHT22;6287;50.984;7.022;2022-10-30T03:00:07;13.90;99.90
12446;DHT22;6287;50.984;7.022;2022-10-30T03:02:32;13.80;99.90
12446;DHT22;6287;50.984;7.022;2022-10-30T03:05:00;13.80;99.90
12446;DHT22;6287;50.984;7.022;2022-10-30T03:07:31;13.80;99.90
12446;DHT22;6287;50.984;7.022;2022-10-30T03:09:56;13.80;99.90
12446;DHT22;6287;50.984;7.022;2022-10-30T03:12:22;13.70;99.90
12446;DHT22;6287;50.984;7.022;2022-10-30T03:14:47;13.60;99.90
12446;DHT22;6287;50.984;7.022;2022-10-30T03:17:13;13.60;99.90
12446;DHT22;6287;50.984;7.022;2022-10-30T03:19:41;13.60;99.90
12446;DHT22;6287;50.984;7.022;2022-10-30T03:22:06;13.50;99.90
12446;DHT22;6287;50.984;7.022;2022-10-30T03:24:34;13.40;99.90
12446;DHT22;6287;50.984;7.022;2022-10-30T03:27:00;13.40;99.90
12446;DHT22;6287;50.984;7.022;2022-10-30T03:29:25;13.40;99.90
12446;DHT22;6287;50.984;7.022;2022-10-30T03:31:51;13.40;99.90
12446;DHT22;6287;50.984;7.022;2022-10-30T03:34:16;13.30;99.90
12446;DHT22;6287;50.984;7.022;2022-10-30T03:36:44;13.30;99.90
12446;DHT22;6287;50.984;7.022;2022-10-30T03:39:10;13.20;99.90
12446;DHT22;6287;50.984;7.022;2022-10-30T03:41:38;13.20;99.90
12446;DHT22;6287;50.984;7.022;2022-10-30T03:44:03;13.20;99.90
12446;DHT22;6287;50.984;7.022;2022-10-30T03:46:34;13.10;99.90
12446;DHT22;6287;50.984;7.022;2022-10-30T03:49:00;13.10;99.90
12446;DHT22;6287;50.984;7.022;2022-10-30T03:51:25;13.00;99.90
12446;DHT22;6287;50.984;7.022;2022-10-30T03:53:51;12.90;99.90
12446;DHT22;6287;50.984;7.022;2022-10-30T03:56:16;13.00;99.90
12446;DHT22;6287;50.984;7.022;2022-10-30T03:58:46;13.00;99.90
12446;DHT22;6287;50.984;7.022;2022-10-30T04:01:11;12.90;99.90
12446;DHT22;6287;50.984;7.022;2022-10-30T04:03:37;12.90;99.90
12446;DHT22;6287;50.984;7.022;2022-10-30T04:06:03;12.80;99.90
12446;DHT22;6287;50.984;7.022;2022-10-30T04:08:30;12.80;99.90
12446;DHT22;6287;50.984;7.022;2022-10-30T04:10:56;12.80;99.90
12446;DHT22;6287;50.984;7.022;2022-10-30T04:13:22;12.70;99.90
12446;DHT22;6287;50.984;7.022;2022-10-30T04:15:50;12.60;99.90
12446;DHT22;6287;50.984;7.022;2022-10-30T04:18:17;12.60;99.90
12446;DHT22;6287;50.984;7.022;2022-10-30T04:20:44;12.60;99.90
12446;DHT22;6287;50.984;7.022;2022-10-30T04:23:14;12.60;99.90
12446;DHT22;6287;50.984;7.022;2022-10-30T04:25:40;12.50;99.90
12446;DHT22;6287;50.984;7.022;2022-10-30T04:28:06;12.50;99.90
12446;DHT22;6287;50.984;7.022;2022-10-30T04:30:32;12.50;99.90
12446;DHT22;6287;50.984;7.022;2022-10-30T04:33:03;12.40;99.90
12446;DHT22;6287;50.984;7.022;2022-10-30T04:35:32;12.40;99.90
12446;DHT22;6287;50.984;7.022;2022-10-30T04:38:02;12.40;99.90
12446;DHT22;6287;50.984;7.022;2022-10-30T04:40:31;12.40;99.90
12446;DHT22;6287;50.984;7.022;2022-10-30T04:43:02;12.40;99.90
12446;DHT22;6287;50.984;7.022;2022-10-30T04:45:28;12.30;99.90
12446;DHT22;6287;50.984;7.022;2022-10-30T04:48:03;12.30;99.90
12446;DHT22;6287;50.984;7.022;2022-10-30T04:50:32;12.10;99.90
12446;DHT22;6287;50.984;7.022;2022-10-30T04:53:07;12.20;99.90
12446;DHT22;6287;50.984;7.022;2022-10-30T04:55:36;12.10;99.90
12446;DHT22;6287;50.984;7.022;2022-10-30T04:58:02;12.10;99.90
12446;DHT22;6287;50.984;7.022;2022-10-30T05:00:31;12.10;99.90
12446;DHT22;6287;50.984;7.022;2022-10-30T05:02:58;12.10;99.90
12446;DHT22;6287;50.984;7.022;2022-10-30T05:05:25;12.10;99.90
12446;DHT22;6287;50.984;7.022;2022-10-30T05:07:53;12.00;99.90
12446;DHT22;6287;50.984;7.022;2022-10-30T05:10:18;12.00;99.90
12446;DHT22;6287;50.984;7.022;2022-10-30T05:12:45;12.00;99.90
12446;DHT22;6287;50.984;7.022;2022-10-30T05:15:12;12.00;99.90
12446;DHT22;6287;50.984;7.022;2022-10-30T05:17:38;11.90;99.90
12446;DHT22;6287;50.984;7.022;2022-10-30T05:20:05;11.80;99.90
12446;DHT22;6287;50.984;7.022;2022-10-30T05:22:33;11.80;99.90
12446;DHT22;6287;50.984;7.022;2022-10-30T05:25:01;11.90;99.90
12446;DHT22;6287;50.984;7.022;2022-10-30T05:27:27;11.90;99.90
12446;DHT22;6287;50.984;7.022;2022-10-30T05:29:55;11.80;99.90
12446;DHT22;6287;50.984;7.022;2022-10-30T05:32:23;11.80;99.90
12446;DHT22;6287;50.984;7.022;2022-10-30T05:34:50;11.80;99.90
12446;DHT22;6287;50.984;7.022;2022-10-30T05:37:16;11.80;99.90
12446;DHT22;6287;50.984;7.022;2022-10-30T05:39:41;11.80;99.90
12446;DHT22;6287;50.984;7.022;2022-10-30T05:42:09;11.80;99.90
12446;DHT22;6287;50.984;7.022;2022-10-30T05:44:35;11.90;99.90
12446;DHT22;6287;50.984;7.022;2022-10-30T05:47:00;11.90;99.90
12446;DHT22;6287;50.984;7.022;2022-10-30T05:49:26;11.90;99.90
12446;DHT22;6287;50.984;7.022;2022-10-30T05:51:51;11.80;99.90
12446;DHT22;6287;50.984;7.022;2022-10-30T05:56:45;11.80;99.90
12446;DHT22;6287;50.984;7.022;2022-10-30T05:59:13;11.80;99.90
12446;DHT22;6287;50.984;7.022;2022-10-30T06:01:38;11.80;99.90
12446;DHT22;6287;50.984;7.022;2022-10-30T06:04:04;11.80;99.90
12446;DHT22;6287;50.984;7.022;2022-10-30T06:06:31;11.70;99.90
12446;DHT22;6287;50.984;7.022;2022-10-30T06:08:59;11.80;99.90
12446;DHT22;6287;50.984;7.022;2022-10-30T06:11:24;11.70;99.90
12446;DHT22;6287;50.984;7.022;2022-10-30T06:13:50;11.70;99.90
12446;DHT22;6287;50.984;7.022;2022-10-30T06:16:16;11.70;99.90
12446;DHT22;6287;50.984;7.022;2022-10-30T06:18:41;11.70;99.90
12446;DHT22;6287;50.984;7.022;2022-10-30T06:21:07;11.70;99.90
12446;DHT22;6287;50.984;7.022;2022-10-30T06:23:32;11.60;99.90
12446;DHT22;6287;50.984;7.022;2022-10-30T06:25:58;11.60;99.90
12446;DHT22;6287;50.984;7.022;2022-10-30T06:28:28;11.60;99.90
12446;DHT22;6287;50.984;7.022;2022-10-30T06:30:54;11.60;99.90
12446;DHT22;6287;50.984;7.022;2022-10-30T06:33:22;11.50;99.90
12446;DHT22;6287;50.984;7.022;2022-10-30T06:35:48;11.50;99.90
12446;DHT22;6287;50.984;7.022;2022-10-30T06:38:16;11.50;99.90
12446;DHT22;6287;50.984;7.022;2022-10-30T06:40:42;11.60;99.90
12446;DHT22;6287;50.984;7.022;2022-10-30T06:43:10;11.60;99.90
12446;DHT22;6287;50.984;7.022;2022-10-30T06:45:38;11.60;99.90
12446;DHT22;6287;50.984;7.022;2022-10-30T06:48:04;11.50;99.90
12446;DHT22;6287;50.984;7.022;2022-10-30T06:50:29;11.60;99.90
12446;DHT22;6287;50.984;7.022;2022-10-30T06:52:57;11.60;99.90
12446;DHT22;6287;50.984;7.022;2022-10-30T06:55:23;11.60;99.90
12446;DHT22;6287;50.984;7.022;2022-10-30T06:57:54;11.60;99.90
12446;DHT22;6287;50.984;7.022;2022-10-30T07:00:20;11.60;99.90
12446;DHT22;6287;50.984;7.022;2022-10-30T07:02:57;11.60;99.90
12446;DHT22;6287;50.984;7.022;2022-10-30T07:05:23;11.70;99.90
12446;DHT22;6287;50.984;7.022;2022-10-30T07:07:49;11.70;99.90
12446;DHT22;6287;50.984;7.022;2022-10-30T07:10:17;11.80;99.90
12446;DHT22;6287;50.984;7.022;2022-10-30T07:12:50;11.80;99.90
12446;DHT22;6287;50.984;7.022;2022-10-30T07:15:16;11.90;99.90
12446;DHT22;6287;50.984;7.022;2022-10-30T07:17:41;12.00;99.90
12446;DHT22;6287;50.984;7.022;2022-10-30T07:20:09;12.10;99.90
12446;DHT22;6287;50.984;7.022;2022-10-30T07:22:42;12.20;99.90
12446;DHT22;6287;50.984;7.022;2022-10-30T07:25:07;12.40;99.90
12446;DHT22;6287;50.984;7.022;2022-10-30T07:27:49;12.40;99.90
12446;DHT22;6287;50.984;7.022;2022-10-30T07:30:19;12.60;99.90
12446;DHT22;6287;50.984;7.022;2022-10-30T07:33:03;12.70;99.90
12446;DHT22;6287;50.984;7.022;2022-10-30T07:35:33;12.80;99.90
12446;DHT22;6287;50.984;7.022;2022-10-30T07:38:03;12.90;99.90
12446;DHT22;6287;50.984;7.022;2022-10-30T07:40:29;13.00;99.90
12446;DHT22;6287;50.984;7.022;2022-10-30T07:42:56;13.00;99.90
12446;DHT22;6287;50.984;7.022;2022-10-30T07:45:25;13.20;99.90
12446;DHT22;6287;50.984;7.022;2022-10-30T07:47:51;13.30;99.90
12446;DHT22;6287;50.984;7.022;2022-10-30T07:50:17;13.50;99.90
12446;DHT22;6287;50.984;7.022;2022-10-30T07:52:45;13.60;99.90
12446;DHT22;6287;50.984;7.022;2022-10-30T07:55:13;13.80;99.90
12446;DHT22;6287;50.984;7.022;2022-10-30T07:57:40;14.00;99.90
12446;DHT22;6287;50.984;7.022;2022-10-30T08:00:08;14.10;99.90
12446;DHT22;6287;50.984;7.022;2022-10-30T08:02:37;14.30;99.90
12446;DHT22;6287;50.984;7.022;2022-10-30T08:05:06;14.40;99.90
12446;DHT22;6287;50.984;7.022;2022-10-30T08:07:37;14.60;99.90
12446;DHT22;6287;50.984;7.022;2022-10-30T08:10:04;14.80;99.90
12446;DHT22;6287;50.984;7.022;2022-10-30T08:12:31;14.90;99.90
12446;DHT22;6287;50.984;7.022;2022-10-30T08:14:57;15.10;99.90
12446;DHT22;6287;50.984;7.022;2022-10-30T08:17:25;15.20;99.90
12446;DHT22;6287;50.984;7.022;2022-10-30T08:19:51;15.30;99.90
12446;DHT22;6287;50.984;7.022;2022-10-30T08:22:19;15.40;99.90
12446;DHT22;6287;50.984;7.022;2022-10-30T08:24:45;15.60;99.90
12446;DHT22;6287;50.984;7.022;2022-10-30T08:27:10;15.70;99.90
12446;DHT22;6287;50.984;7.022;2022-10-30T08:29:36;15.90;99.90
12446;DHT22;6287;50.984;7.022;2022-10-30T08:32:04;16.10;99.90
12446;DHT22;6287;50.984;7.022;2022-10-30T08:34:30;16.20;99.90
12446;DHT22;6287;50.984;7.022;2022-10-30T08:36:57;16.40;99.90
12446;DHT22;6287;50.984;7.022;2022-10-30T08:39:22;16.50;99.90
12446;DHT22;6287;50.984;7.022;2022-10-30T08:41:48;16.60;99.90
12446;DHT22;6287;50.984;7.022;2022-10-30T08:44:15;16.70;99.90
12446;DHT22;6287;50.984;7.022;2022-10-30T08:46:46;16.80;99.90
12446;DHT22;6287;50.984;7.022;2022-10-30T08:49:13;16.90;99.90
12446;DHT22;6287;50.984;7.022;2022-10-30T08:51:39;17.00;99.90
12446;DHT22;6287;50.984;7.022;2022-10-30T08:54:05;17.10;99.90
12446;DHT22;6287;50.984;7.022;2022-10-30T08:56:35;17.20;99.90
12446;DHT22;6287;50.984;7.022;2022-10-30T08:59:03;17.30;99.90
12446;DHT22;6287;50.984;7.022;2022-10-30T09:01:31;17.40;99.90
12446;DHT22;6287;50.984;7.022;2022-10-30T09:03:56;17.50;99.90
12446;DHT22;6287;50.984;7.022;2022-10-30T09:06:22;17.50;99.90
12446;DHT22;6287;50.984;7.022;2022-10-30T09:08:47;17.60;99.90
12446;DHT22;6287;50.984;7.022;2022-10-30T09:11:17;17.60;99.90
12446;DHT22;6287;50.984;7.022;2022-10-30T09:13:45;17.60;99.90
12446;DHT22;6287;50.984;7.022;2022-10-30T09:16:13;17.60;99.90
12446;DHT22;6287;50.984;7.022;2022-10-30T09:18:39;17.70;99.90
12446;DHT22;6287;50.984;7.022;2022-10-30T09:21:07;17.70;99.90
12446;DHT22;6287;50.984;7.022;2022-10-30T09:23:35;17.70;99.90
12446;DHT22;6287;50.984;7.022;2022-10-30T09:26:01;17.80;99.90
12446;DHT22;6287;50.984;7.022;2022-10-30T09:28:26;17.80;99.90
12446;DHT22;6287;50.984;7.022;2022-10-30T09:30:52;18.00;99.90
12446;DHT22;6287;50.984;7.022;2022-10-30T09:33:22;18.10;99.90
12446;DHT22;6287;50.984;7.022;2022-10-30T09:35:51;18.30;99.90
12446;DHT22;6287;50.984;7.022;2022-10-30T09:38:19;18.40;99.90
12446;DHT22;6287;50.984;7.022;2022-10-30T09:51:48;19.30;99.90
12446;DHT22;6287;50.984;7.022;2022-10-30T09:58:17;19.70;99.90
12446;DHT22;6287;50.984;7.022;2022-10-30T10:00:29;19.80;99.90
12446;DHT22;6287;50.984;7.022;2022-10-30T10:05:54;20.10;99.90
12446;DHT22;6287;50.984;7.022;2022-10-30T10:08:50;20.30;99.90
12446;DHT22;6287;50.984;7.022;2022-10-30T10:11:24;20.60;99.90
12446;DHT22;6287;50.984;7.022;2022-10-30T10:14:06;20.60;99.90
12446;DHT22;6287;50.984;7.022;2022-10-30T10:16:38;20.80;99.90
12446;DHT22;6287;50.984;7.022;2022-10-30T10:19:18;21.00;99.90
12446;DHT22;6287;50.984;7.022;2022-10-30T10:21:55;21.10;99.90
12446;DHT22;6287;50.984;7.022;2022-10-30T10:24:31;21.30;99.90
12446;DHT22;6287;50.984;7.022;2022-10-30T10:29:47;21.50;99.90
12446;DHT22;6287;50.984;7.022;2022-10-30T10:40:56;21.80;99.90
12446;DHT22;6287;50.984;7.022;2022-10-30T10:52:06;22.00;99.90
12446;DHT22;6287;50.984;7.022;2022-10-30T10:54:41;22.10;99.90
12446;DHT22;6287;50.984;7.022;2022-10-30T10:57:35;22.20;99.90
12446;DHT22;6287;50.984;7.022;2022-10-30T11:00:06;22.30;99.90
12446;DHT22;6287;50.984;7.022;2022-10-30T11:05:33;22.50;99.90
12446;DHT22;6287;50.984;7.022;2022-10-30T11:10:43;22.80;99.90
12446;DHT22;6287;50.984;7.022;2022-10-30T11:13:12;22.90;99.90
12446;DHT22;6287;50.984;7.022;2022-10-30T11:18:33;23.20;99.90
12446;DHT22;6287;50.984;7.022;2022-10-30T11:21:08;23.30;99.90
12446;DHT22;6287;50.984;7.022;2022-10-30T11:23:41;23.50;99.90
12446;DHT22;6287;50.984;7.022;2022-10-30T11:31:42;24.00;99.90
12446;DHT22;6287;50.984;7.022;2022-10-30T11:36:50;24.10;99.90
12446;DHT22;6287;50.984;7.022;2022-10-30T11:39:17;24.20;99.90
12446;DHT22;6287;50.984;7.022;2022-10-30T11:41:57;24.20;99.90
12446;DHT22;6287;50.984;7.022;2022-10-30T11:44:36;24.30;99.90
12446;DHT22;6287;50.984;7.022;2022-10-30T11:47:03;24.40;99.90
12446;DHT22;6287;50.984;7.022;2022-10-30T11:49:40;24.50;99.90
12446;DHT22;6287;50.984;7.022;2022-10-30T11:52:09;24.60;99.90
12446;DHT22;6287;50.984;7.022;2022-10-30T11:54:41;24.70;99.90
12446;DHT22;6287;50.984;7.022;2022-10-30T11:59:55;25.00;99.60
12446;DHT22;6287;50.984;7.022;2022-10-30T12:02:28;25.10;99.20
12446;DHT22;6287;50.984;7.022;2022-10-30T12:05:00;25.20;99.00
12446;DHT22;6287;50.984;7.022;2022-10-30T12:07:33;25.20;98.60
12446;DHT22;6287;50.984;7.022;2022-10-30T12:09:59;25.20;99.00
12446;DHT22;6287;50.984;7.022;2022-10-30T12:14:51;25.20;99.30
12446;DHT22;6287;50.984;7.022;2022-10-30T12:17:20;25.10;98.70
12446;DHT22;6287;50.984;7.022;2022-10-30T12:19:54;25.10;98.30
12446;DHT22;6287;50.984;7.022;2022-10-30T12:22:25;24.90;97.60
12446;DHT22;6287;50.984;7.022;2022-10-30T12:24:51;24.90;98.30
12446;DHT22;6287;50.984;7.022;2022-10-30T12:27:17;24.90;98.20
12446;DHT22;6287;50.984;7.022;2022-10-30T12:32:20;25.00;98.00
12446;DHT22;6287;50.984;7.022;2022-10-30T12:37:43;25.10;97.80
12446;DHT22;6287;50.984;7.022;2022-10-30T12:40:15;25.10;97.60
12446;DHT22;6287;50.984;7.022;2022-10-30T12:42:52;25.10;97.10
12446;DHT22;6287;50.984;7.022;2022-10-30T12:45:36;25.00;98.10
12446;DHT22;6287;50.984;7.022;2022-10-30T12:56:17;24.80;98.20
12446;DHT22;6287;50.984;7.022;2022-10-30T12:58:49;24.90;97.60
12446;DHT22;6287;50.984;7.022;2022-10-30T13:01:37;24.90;98.10
12446;DHT22;6287;50.984;7.022;2022-10-30T13:04:16;24.90;97.20
12446;DHT22;6287;50.984;7.022;2022-10-30T13:06:53;24.90;97.30
12446;DHT22;6287;50.984;7.022;2022-10-30T13:12:13;24.80;96.80
12446;DHT22;6287;50.984;7.022;2022-10-30T13:14:46;24.70;97.70
12446;DHT22;6287;50.984;7.022;2022-10-30T13:17:18;24.80;97.10
12446;DHT22;6287;50.984;7.022;2022-10-30T13:19:46;24.90;96.90
12446;DHT22;6287;50.984;7.022;2022-10-30T13:22:26;24.90;98.40
12446;DHT22;6287;50.984;7.022;2022-10-30T13:30:13;24.90;96.80
12446;DHT22;6287;50.984;7.022;2022-10-30T13:33:08;24.90;97.00
12446;DHT22;6287;50.984;7.022;2022-10-30T13:36:34;24.90;96.90
12446;DHT22;6287;50.984;7.022;2022-10-30T13:38:56;24.90;96.40
12446;DHT22;6287;50.984;7.022;2022-10-30T13:41:44;24.90;96.90
12446;DHT22;6287;50.984;7.022;2022-10-30T13:52:21;24.60;97.90
12446;DHT22;6287;50.984;7.022;2022-10-30T13:55:17;24.60;99.50
12446;DHT22;6287;50.984;7.022;2022-10-30T14:06:29;24.20;97.50
12446;DHT22;6287;50.984;7.022;2022-10-30T14:09:23;24.10;96.90
12446;DHT22;6287;50.984;7.022;2022-10-30T14:11:57;23.80;96.40
12446;DHT22;6287;50.984;7.022;2022-10-30T14:14:29;23.80;96.90
12446;DHT22;6287;50.984;7.022;2022-10-30T14:22:29;23.60;98.70
12446;DHT22;6287;50.984;7.022;2022-10-30T14:24:57;23.50;97.00
12446;DHT22;6287;50.984;7.022;2022-10-30T14:27:28;23.40;98.60
12446;DHT22;6287;50.984;7.022;2022-10-30T14:29:57;23.30;98.30
12446;DHT22;6287;50.984;7.022;2022-10-30T14:39:49;22.90;99.30
12446;DHT22;6287;50.984;7.022;2022-10-30T14:53:04;22.40;97.90
12446;DHT22;6287;50.984;7.022;2022-10-30T14:58:28;22.20;98.70
12446;DHT22;6287;50.984;7.022;2022-10-30T15:06:29;22.00;99.70
12446;DHT22;6287;50.984;7.022;2022-10-30T15:14:48;21.70;99.90
12446;DHT22;6287;50.984;7.022;2022-10-30T15:17:30;21.60;99.90
12446;DHT22;6287;50.984;7.022;2022-10-30T15:20:03;21.50;99.90
12446;DHT22;6287;50.984;7.022;2022-10-30T15:22:31;21.40;99.90
12446;DHT22;6287;50.984;7.022;2022-10-30T15:24:57;21.40;99.90
12446;DHT22;6287;50.984;7.022;2022-10-30T15:27:26;21.30;99.90
12446;DHT22;6287;50.984;7.022;2022-10-30T15:29:54;21.30;99.90
12446;DHT22;6287;50.984;7.022;2022-10-30T15:32:24;21.20;99.90
12446;DHT22;6287;50.984;7.022;2022-10-30T15:35:01;21.10;99.90
12446;DHT22;6287;50.984;7.022;2022-10-30T15:37:28;21.00;99.90
12446;DHT22;6287;50.984;7.022;2022-10-30T15:40:23;20.90;99.90
12446;DHT22;6287;50.984;7.022;2022-10-30T15:42:49;20.90;99.90
12446;DHT22;6287;50.984;7.022;2022-10-30T15:47:52;20.70;99.90
12446;DHT22;6287;50.984;7.022;2022-10-30T15:50:22;20.60;99.90
12446;DHT22;6287;50.984;7.022;2022-10-30T15:52:48;20.50;99.90
12446;DHT22;6287;50.984;7.022;2022-10-30T15:55:16;20.40;99.90
12446;DHT22;6287;50.984;7.022;2022-10-30T15:57:46;20.20;99.90
12446;DHT22;6287;50.984;7.022;2022-10-30T16:00:23;20.20;99.90
12446;DHT22;6287;50.984;7.022;2022-10-30T16:03:03;20.10;99.90
12446;DHT22;6287;50.984;7.022;2022-10-30T16:05:31;20.00;99.90
12446;DHT22;6287;50.984;7.022;2022-10-30T16:08:01;20.00;99.90
12446;DHT22;6287;50.984;7.022;2022-10-30T16:10:33;19.80;99.90
12446;DHT22;6287;50.984;7.022;2022-10-30T16:13:02;19.70;99.90
12446;DHT22;6287;50.984;7.022;2022-10-30T16:15:38;19.60;99.90
12446;DHT22;6287;50.984;7.022;2022-10-30T16:20:50;19.40;99.90
12446;DHT22;6287;50.984;7.022;2022-10-30T16:23:19;19.30;99.90
12446;DHT22;6287;50.984;7.022;2022-10-30T16:25:46;19.20;99.90
12446;DHT22;6287;50.984;7.022;2022-10-30T16:30:48;19.00;99.90
12446;DHT22;6287;50.984;7.022;2022-10-30T16:33:14;18.80;99.90
12446;DHT22;6287;50.984;7.022;2022-10-30T16:35:47;18.70;99.90
12446;DHT22;6287;50.984;7.022;2022-10-30T16:38:14;18.60;99.90
12446;DHT22;6287;50.984;7.022;2022-10-30T16:40:39;18.50;99.90
12446;DHT22;6287;50.984;7.022;2022-10-30T16:43:29;18.50;99.90
12446;DHT22;6287;50.984;7.022;2022-10-30T16:46:22;18.40;99.90
12446;DHT22;6287;50.984;7.022;2022-10-30T16:49:03;18.30;99.90
12446;DHT22;6287;50.984;7.022;2022-10-30T16:51:32;18.20;99.90
12446;DHT22;6287;50.984;7.022;2022-10-30T16:54:00;18.10;99.90
12446;DHT22;6287;50.984;7.022;2022-10-30T16:56:30;18.00;99.90
12446;DHT22;6287;50.984;7.022;2022-10-30T16:59:14;17.90;99.90
12446;DHT22;6287;50.984;7.022;2022-10-30T17:01:43;17.80;99.90
12446;DHT22;6287;50.984;7.022;2022-10-30T17:04:13;17.80;99.90
12446;DHT22;6287;50.984;7.022;2022-10-30T17:06:40;17.60;99.90
12446;DHT22;6287;50.984;7.022;2022-10-30T17:09:09;17.60;99.90
12446;DHT22;6287;50.984;7.022;2022-10-30T17:11:40;17.50;99.90
12446;DHT22;6287;50.984;7.022;2022-10-30T17:14:19;17.40;99.90
12446;DHT22;6287;50.984;7.022;2022-10-30T17:22:07;17.30;99.90
12446;DHT22;6287;50.984;7.022;2022-10-30T17:24:35;17.20;99.90
12446;DHT22;6287;50.984;7.022;2022-10-30T17:27:04;17.20;99.90
12446;DHT22;6287;50.984;7.022;2022-10-30T17:32:26;17.00;99.90
12446;DHT22;6287;50.984;7.022;2022-10-30T17:35:01;16.90;99.90
12446;DHT22;6287;50.984;7.022;2022-10-30T17:37:29;16.80;99.90
12446;DHT22;6287;50.984;7.022;2022-10-30T17:39:55;16.70;99.90
12446;DHT22;6287;50.984;7.022;2022-10-30T17:42:21;16.70;99.90
12446;DHT22;6287;50.984;7.022;2022-10-30T17:44:49;16.60;99.90
12446;DHT22;6287;50.984;7.022;2022-10-30T17:47:18;16.60;99.90
12446;DHT22;6287;50.984;7.022;2022-10-30T17:49:50;16.50;99.90
12446;DHT22;6287;50.984;7.022;2022-10-30T17:52:18;16.50;99.90
12446;DHT22;6287;50.984;7.022;2022-10-30T17:54:49;16.50;99.90
12446;DHT22;6287;50.984;7.022;2022-10-30T17:57:17;16.40;99.90
12446;DHT22;6287;50.984;7.022;2022-10-30T17:59:48;16.40;99.90
12446;DHT22;6287;50.984;7.022;2022-10-30T18:02:18;16.40;99.90
12446;DHT22;6287;50.984;7.022;2022-10-30T18:04:47;16.30;99.90
12446;DHT22;6287;50.984;7.022;2022-10-30T18:07:16;16.20;99.90
12446;DHT22;6287;50.984;7.022;2022-10-30T18:09:44;16.20;99.90
12446;DHT22;6287;50.984;7.022;2022-10-30T18:12:14;16.10;99.90
12446;DHT22;6287;50.984;7.022;2022-10-30T18:14:40;16.00;99.90
12446;DHT22;6287;50.984;7.022;2022-10-30T18:17:09;16.00;99.90
12446;DHT22;6287;50.984;7.022;2022-10-30T18:19:37;16.00;99.90
12446;DHT22;6287;50.984;7.022;2022-10-30T18:22:03;15.90;99.90
12446;DHT22;6287;50.984;7.022;2022-10-30T18:24:28;15.90;99.90
12446;DHT22;6287;50.984;7.022;2022-10-30T18:26:57;15.90;99.90
12446;DHT22;6287;50.984;7.022;2022-10-30T18:29:25;15.90;99.90
12446;DHT22;6287;50.984;7.022;2022-10-30T18:31:50;15.90;99.90
12446;DHT22;6287;50.984;7.022;2022-10-30T18:34:18;15.80;99.90
12446;DHT22;6287;50.984;7.022;2022-10-30T18:36:47;15.70;99.90
12446;DHT22;6287;50.984;7.022;2022-10-30T18:39:13;15.70;99.90
12446;DHT22;6287;50.984;7.022;2022-10-30T18:41:42;15.70;99.90
12446;DHT22;6287;50.984;7.022;2022-10-30T18:44:15;15.60;99.90
12446;DHT22;6287;50.984;7.022;2022-10-30T18:49:07;15.60;99.90
12446;DHT22;6287;50.984;7.022;2022-10-30T18:51:33;15.60;99.90
12446;DHT22;6287;50.984;7.022;2022-10-30T18:54:01;15.60;99.90